sensor_id;sensor_type;location;lat;lon;timestamp;pressure;altitude;pressure_sealevel;temperature;humidity
6132;BME280;3097;42.692;23.278;2023-05-02T00:00:08;95305.03;;;14.32;66.28
6132;BME280;3097;42.692;23.278;2023-05-02T00:02:33;95317.66;;;14.29;66.22
6132;BME280;3097;42.692;23.278;2023-05-02T00:04:59;95315.00;;;14.24;66.91
6132;BME280;3097;42.692;23.278;2023-05-02T00:07:24;95312.97;;;14.26;66.90
6132;BME280;3097;42.692;23.278;2023-05-02T00:09:51;95283.94;;;14.12;66.50
6132;BME280;3097;42.692;23.278;2023-05-02T00:12:16;95310.31;;;14.38;66.30
6132;BME280;3097;42.692;23.278;2023-05-02T00:14:42;95310.53;;;14.36;66.49
6132;BME280;3097;42.692;23.278;2023-05-02T00:17:07;95292.06;;;14.32;66.06
6132;BME280;3097;42.692;23.278;2023-05-02T00:19:37;95313.34;;;14.46;65.62
6132;BME280;3097;42.692;23.278;2023-05-02T00:22:04;95202.97;;;13.77;65.89
6132;BME280;3097;42.692;23.278;2023-05-02T00:24:29;95308.66;;;14.31;66.08
6132;BME280;3097;42.692;23.278;2023-05-02T00:26:55;95311.25;;;14.31;66.25
6132;BME280;3097;42.692;23.278;2023-05-02T00:29:20;95318.94;;;14.26;66.57
6132;BME280;3097;42.692;23.278;2023-05-02T00:31:46;95320.97;;;14.24;66.76
6132;BME280;3097;42.692;23.278;2023-05-02T00:34:12;95325.19;;;14.14;67.50
6132;BME280;3097;42.692;23.278;2023-05-02T00:36:37;95319.59;;;14.05;67.82
6132;BME280;3097;42.692;23.278;2023-05-02T00:39:03;95322.72;;;14.07;67.64
6132;BME280;3097;42.692;23.278;2023-05-02T00:41:29;95336.97;;;14.21;67.54
6132;BME280;3097;42.692;23.278;2023-05-02T00:43:55;95332.28;;;14.18;67.04
6132;BME280;3097;42.692;23.278;2023-05-02T00:46:21;95341.56;;;14.31;67.03
6132;BME280;3097;42.692;23.278;2023-05-02T00:48:46;95341.56;;;14.31;67.38
6132;BME280;3097;42.692;23.278;2023-05-02T00:51:12;95341.56;;;14.31;66.64
6132;BME280;3097;42.692;23.278;2023-05-02T00:53:39;95342.81;;;14.40;66.64
6132;BME280;3097;42.692;23.278;2023-05-02T00:56:05;95340.84;;;14.47;66.40
6132;BME280;3097;42.692;23.278;2023-05-02T00:58:30;95343.00;;;14.50;66.27
6132;BME280;3097;42.692;23.278;2023-05-02T01:01:23;95337.41;;;14.42;66.85
6132;BME280;3097;42.692;23.278;2023-05-02T01:06:35;95344.50;;;14.34;67.50
6132;BME280;3097;42.692;23.278;2023-05-02T01:14:14;95336.81;;;14.11;68.56
6132;BME280;3097;42.692;23.278;2023-05-02T01:16:40;95323.22;;;14.04;68.96
6132;BME280;3097;42.692;23.278;2023-05-02T01:19:35;95336.97;;;14.05;69.06
6132;BME280;3097;42.692;23.278;2023-05-02T01:22:05;95327.31;;;13.88;69.65
6132;BME280;3097;42.692;23.278;2023-05-02T01:24:39;95306.59;;;13.77;70.45
6132;BME280;3097;42.692;23.278;2023-05-02T01:29:49;95313.19;;;13.68;71.25
6132;BME280;3097;42.692;23.278;2023-05-02T01:32:16;95304.06;;;13.53;72.09
6132;BME280;3097;42.692;23.278;2023-05-02T01:34:45;95282.38;;;13.31;72.71
6132;BME280;3097;42.692;23.278;2023-05-02T01:37:12;95309.28;;;13.42;72.93
6132;BME280;3097;42.692;23.278;2023-05-02T01:39:39;95319.50;;;13.48;73.06
6132;BME280;3097;42.692;23.278;2023-05-02T01:42:05;95329.00;;;13.43;73.46
6132;BME280;3097;42.692;23.278;2023-05-02T01:44:32;95329.44;;;13.40;73.54
6132;BME280;3097;42.692;23.278;2023-05-02T01:47:01;95324.25;;;13.40;73.62
6132;BME280;3097;42.692;23.278;2023-05-02T01:49:29;95324.47;;;13.38;73.85
6132;BME280;3097;42.692;23.278;2023-05-02T01:52:01;95336.41;;;13.39;74.08
6132;BME280;3097;42.692;23.278;2023-05-02T01:54:29;95325.97;;;13.34;74.28
6132;BME280;3097;42.692;23.278;2023-05-02T01:56:55;95330.34;;;13.34;74.05
6132;BME280;3097;42.692;23.278;2023-05-02T01:59:21;95299.81;;;13.12;74.47
6132;BME280;3097;42.692;23.278;2023-05-02T02:01:50;95314.25;;;13.32;74.18
6132;BME280;3097;42.692;23.278;2023-05-02T02:04:18;95316.94;;;13.25;74.93
6132;BME280;3097;42.692;23.278;2023-05-02T02:06:47;95318.66;;;13.20;75.12
6132;BME280;3097;42.692;23.278;2023-05-02T02:09:15;95313.59;;;13.13;75.29
6132;BME280;3097;42.692;23.278;2023-05-02T02:11:46;95322.59;;;13.22;75.49
6132;BME280;3097;42.692;23.278;2023-05-02T02:14:24;95323.34;;;13.11;75.85
6132;BME280;3097;42.692;23.278;2023-05-02T02:16:52;95322.34;;;13.12;75.89
6132;BME280;3097;42.692;23.278;2023-05-02T02:19:19;95318.78;;;13.13;76.03
6132;BME280;3097;42.692;23.278;2023-05-02T02:21:46;95322.94;;;13.14;76.11
6132;BME280;3097;42.692;23.278;2023-05-02T02:24:15;95318.63;;;13.08;76.36
6132;BME280;3097;42.692;23.278;2023-05-02T02:26:42;95310.06;;;12.84;77.12
6132;BME280;3097;42.692;23.278;2023-05-02T02:29:08;95320.59;;;12.71;78.26
6132;BME280;3097;42.692;23.278;2023-05-02T02:31:34;95312.75;;;12.66;78.11
6132;BME280;3097;42.692;23.278;2023-05-02T02:34:01;95318.16;;;12.76;78.08
6132;BME280;3097;42.692;23.278;2023-05-02T02:42:21;95327.72;;;12.75;78.07
6132;BME280;3097;42.692;23.278;2023-05-02T02:45:04;95332.22;;;12.68;78.32
6132;BME280;3097;42.692;23.278;2023-05-02T02:47:42;95325.34;;;12.62;78.94
6132;BME280;3097;42.692;23.278;2023-05-02T02:50:28;95318.59;;;12.61;78.17
6132;BME280;3097;42.692;23.278;2023-05-02T02:53:03;95337.06;;;12.76;78.30
6132;BME280;3097;42.692;23.278;2023-05-02T02:55:39;95338.97;;;12.69;78.37
6132;BME280;3097;42.692;23.278;2023-05-02T02:58:53;95339.19;;;12.68;78.51
6132;BME280;3097;42.692;23.278;2023-05-02T03:01:11;95342.78;;;12.78;77.75
6132;BME280;3097;42.692;23.278;2023-05-02T03:03:41;95351.13;;;12.80;77.43
6132;BME280;3097;42.692;23.278;2023-05-02T03:06:07;95349.09;;;12.83;77.57
6132;BME280;3097;42.692;23.278;2023-05-02T03:08:39;95354.28;;;12.83;77.41
6132;BME280;3097;42.692;23.278;2023-05-02T03:11:05;95362.81;;;12.95;76.97
6132;BME280;3097;42.692;23.278;2023-05-02T03:13:31;95376.59;;;13.07;76.37
6132;BME280;3097;42.692;23.278;2023-05-02T03:18:43;95365.81;;;13.22;74.87
6132;BME280;3097;42.692;23.278;2023-05-02T03:21:08;95372.47;;;13.29;74.05
6132;BME280;3097;42.692;23.278;2023-05-02T03:23:34;95349.84;;;13.13;74.23
6132;BME280;3097;42.692;23.278;2023-05-02T03:26:00;95371.44;;;13.30;74.01
6132;BME280;3097;42.692;23.278;2023-05-02T03:28:27;95337.88;;;13.12;73.72
6132;BME280;3097;42.692;23.278;2023-05-02T03:30:52;95378.19;;;13.31;73.37
6132;BME280;3097;42.692;23.278;2023-05-02T03:33:18;95364.47;;;13.19;74.29
6132;BME280;3097;42.692;23.278;2023-05-02T03:35:43;95362.16;;;13.11;74.71
6132;BME280;3097;42.692;23.278;2023-05-02T03:38:08;95377.03;;;13.04;75.52
6132;BME280;3097;42.692;23.278;2023-05-02T03:40:34;95368.25;;;13.05;75.60
6132;BME280;3097;42.692;23.278;2023-05-02T03:42:59;95359.22;;;12.96;76.05
6132;BME280;3097;42.692;23.278;2023-05-02T03:45:28;95363.84;;;12.94;76.54
6132;BME280;3097;42.692;23.278;2023-05-02T03:47:54;95371.16;;;12.97;75.80
6132;BME280;3097;42.692;23.278;2023-05-02T03:50:19;95369.16;;;12.99;75.84
6132;BME280;3097;42.692;23.278;2023-05-02T03:52:45;95370.47;;;12.90;76.47
6132;BME280;3097;42.692;23.278;2023-05-02T03:55:11;95375.13;;;12.99;75.39
6132;BME280;3097;42.692;23.278;2023-05-02T03:57:36;95373.31;;;13.00;74.91
6132;BME280;3097;42.692;23.278;2023-05-02T04:00:01;95370.03;;;12.93;75.79
6132;BME280;3097;42.692;23.278;2023-05-02T04:02:28;95373.38;;;12.82;76.14
6132;BME280;3097;42.692;23.278;2023-05-02T04:04:54;95344.66;;;12.60;75.99
6132;BME280;3097;42.692;23.278;2023-05-02T04:07:19;95373.13;;;12.71;76.87
6132;BME280;3097;42.692;23.278;2023-05-02T04:09:45;95370.69;;;12.76;76.67
6132;BME280;3097;42.692;23.278;2023-05-02T04:12:11;95265.25;;;11.95;76.81
6132;BME280;3097;42.692;23.278;2023-05-02T04:14:36;95379.19;;;12.65;76.86
6132;BME280;3097;42.692;23.278;2023-05-02T04:17:05;95337.31;;;12.45;76.22
6132;BME280;3097;42.692;23.278;2023-05-02T04:19:30;95386.53;;;12.80;76.40
6132;BME280;3097;42.692;23.278;2023-05-02T04:21:57;95383.31;;;12.96;75.90
6132;BME280;3097;42.692;23.278;2023-05-02T04:24:22;95376.13;;;13.10;74.46
6132;BME280;3097;42.692;23.278;2023-05-02T04:26:48;95346.50;;;12.94;74.35
6132;BME280;3097;42.692;23.278;2023-05-02T04:29:13;95345.84;;;13.10;73.39
6132;BME280;3097;42.692;23.278;2023-05-02T04:31:39;95381.78;;;13.42;72.40
6132;BME280;3097;42.692;23.278;2023-05-02T04:34:06;95375.06;;;14.04;70.28
6132;BME280;3097;42.692;23.278;2023-05-02T04:36:49;95378.16;;;14.91;67.43
6132;BME280;3097;42.692;23.278;2023-05-02T04:39:15;95382.09;;;15.61;62.65
6132;BME280;3097;42.692;23.278;2023-05-02T04:41:43;95347.56;;;15.65;61.31
6132;BME280;3097;42.692;23.278;2023-05-02T04:44:09;95382.66;;;16.06;60.76
6132;BME280;3097;42.692;23.278;2023-05-02T04:46:34;95387.84;;;16.28;58.77
6132;BME280;3097;42.692;23.278;2023-05-02T04:49:00;95390.16;;;16.73;57.69
6132;BME280;3097;42.692;23.278;2023-05-02T04:51:25;95392.34;;;17.18;55.71
6132;BME280;3097;42.692;23.278;2023-05-02T04:53:52;95389.06;;;17.33;55.07
6132;BME280;3097;42.692;23.278;2023-05-02T04:56:17;95390.31;;;17.25;54.27
6132;BME280;3097;42.692;23.278;2023-05-02T04:58:43;95387.25;;;16.96;55.49
6132;BME280;3097;42.692;23.278;2023-05-02T05:01:08;95381.00;;;17.34;53.60
6132;BME280;3097;42.692;23.278;2023-05-02T05:03:33;95381.13;;;17.50;52.69
6132;BME280;3097;42.692;23.278;2023-05-02T05:05:59;95389.47;;;17.99;52.18
6132;BME280;3097;42.692;23.278;2023-05-02T05:08:24;95364.56;;;17.71;51.76
6132;BME280;3097;42.692;23.278;2023-05-02T05:10:50;95351.59;;;17.81;51.46
6132;BME280;3097;42.692;23.278;2023-05-02T05:13:15;95374.44;;;17.64;51.98
6132;BME280;3097;42.692;23.278;2023-05-02T05:15:41;95371.88;;;18.41;51.18
6132;BME280;3097;42.692;23.278;2023-05-02T05:18:06;95376.94;;;19.24;47.86
6132;BME280;3097;42.692;23.278;2023-05-02T05:20:32;95369.63;;;19.31;46.75
6132;BME280;3097;42.692;23.278;2023-05-02T05:23:00;95366.47;;;19.49;46.08
6132;BME280;3097;42.692;23.278;2023-05-02T05:25:26;95386.34;;;19.45;46.86
6132;BME280;3097;42.692;23.278;2023-05-02T05:27:52;95381.09;;;19.55;46.19
6132;BME280;3097;42.692;23.278;2023-05-02T05:30:19;95382.19;;;19.14;46.60
6132;BME280;3097;42.692;23.278;2023-05-02T05:32:44;95379.56;;;19.54;47.04
6132;BME280;3097;42.692;23.278;2023-05-02T05:35:10;95390.22;;;19.73;45.62
6132;BME280;3097;42.692;23.278;2023-05-02T05:37:35;95392.09;;;19.32;46.39
6132;BME280;3097;42.692;23.278;2023-05-02T05:40:06;95385.31;;;20.36;44.15
6132;BME280;3097;42.692;23.278;2023-05-02T05:42:31;95391.44;;;20.65;43.47
6132;BME280;3097;42.692;23.278;2023-05-02T05:44:57;95383.59;;;20.65;42.83
6132;BME280;3097;42.692;23.278;2023-05-02T05:47:22;95400.00;;;21.15;41.60
6132;BME280;3097;42.692;23.278;2023-05-02T05:49:55;95394.25;;;21.13;43.33
6132;BME280;3097;42.692;23.278;2023-05-02T05:52:20;95378.66;;;22.32;39.44
6132;BME280;3097;42.692;23.278;2023-05-02T05:54:46;95400.06;;;21.44;40.14
6132;BME280;3097;42.692;23.278;2023-05-02T05:57:12;95386.31;;;21.57;40.69
6132;BME280;3097;42.692;23.278;2023-05-02T05:59:37;95401.28;;;22.89;39.76
6132;BME280;3097;42.692;23.278;2023-05-02T06:02:02;95390.97;;;24.04;35.67
6132;BME280;3097;42.692;23.278;2023-05-02T06:04:28;95396.50;;;24.57;34.19
6132;BME280;3097;42.692;23.278;2023-05-02T06:06:54;95369.00;;;23.81;36.08
6132;BME280;3097;42.692;23.278;2023-05-02T06:09:20;95342.66;;;24.22;34.53
6132;BME280;3097;42.692;23.278;2023-05-02T06:11:45;95410.50;;;23.57;35.59
6132;BME280;3097;42.692;23.278;2023-05-02T06:14:10;95396.00;;;24.14;35.18
6132;BME280;3097;42.692;23.278;2023-05-02T06:16:36;95395.59;;;24.97;34.17
6132;BME280;3097;42.692;23.278;2023-05-02T06:19:01;95408.03;;;24.34;34.58
6132;BME280;3097;42.692;23.278;2023-05-02T06:21:27;95395.84;;;24.74;33.21
6132;BME280;3097;42.692;23.278;2023-05-02T06:23:52;95401.50;;;24.81;32.96
6132;BME280;3097;42.692;23.278;2023-05-02T06:26:18;95402.47;;;24.85;33.29
6132;BME280;3097;42.692;23.278;2023-05-02T06:28:43;95398.41;;;23.56;35.32
6132;BME280;3097;42.692;23.278;2023-05-02T06:31:09;95395.34;;;24.08;34.55
6132;BME280;3097;42.692;23.278;2023-05-02T06:33:34;95393.69;;;24.76;33.79
6132;BME280;3097;42.692;23.278;2023-05-02T06:36:01;95393.78;;;24.48;33.17
6132;BME280;3097;42.692;23.278;2023-05-02T06:38:26;95399.63;;;23.44;34.68
6132;BME280;3097;42.692;23.278;2023-05-02T06:40:52;95392.75;;;22.78;35.81
6132;BME280;3097;42.692;23.278;2023-05-02T06:43:18;95395.97;;;22.75;36.38
6132;BME280;3097;42.692;23.278;2023-05-02T06:45:43;95394.19;;;22.10;37.24
6132;BME280;3097;42.692;23.278;2023-05-02T06:48:09;95401.13;;;22.19;37.73
6132;BME280;3097;42.692;23.278;2023-05-02T06:50:35;95370.09;;;21.50;38.42
6132;BME280;3097;42.692;23.278;2023-05-02T06:53:01;95398.41;;;21.53;38.85
6132;BME280;3097;42.692;23.278;2023-05-02T06:55:26;95397.25;;;21.64;38.51
6132;BME280;3097;42.692;23.278;2023-05-02T06:57:53;95383.09;;;21.65;39.50
6132;BME280;3097;42.692;23.278;2023-05-02T07:00:19;95373.00;;;21.96;39.02
6132;BME280;3097;42.692;23.278;2023-05-02T07:02:46;95405.81;;;21.46;38.39
6132;BME280;3097;42.692;23.278;2023-05-02T07:05:11;95402.53;;;20.96;39.39
6132;BME280;3097;42.692;23.278;2023-05-02T07:07:37;95401.19;;;20.55;40.82
6132;BME280;3097;42.692;23.278;2023-05-02T07:10:03;95396.41;;;21.06;41.64
6132;BME280;3097;42.692;23.278;2023-05-02T07:12:29;95401.06;;;21.19;39.18
6132;BME280;3097;42.692;23.278;2023-05-02T07:14:54;95408.41;;;20.78;39.46
6132;BME280;3097;42.692;23.278;2023-05-02T07:17:20;95397.38;;;20.76;40.31
6132;BME280;3097;42.692;23.278;2023-05-02T07:19:45;95416.47;;;20.86;39.80
6132;BME280;3097;42.692;23.278;2023-05-02T07:22:11;95397.28;;;20.96;39.47
6132;BME280;3097;42.692;23.278;2023-05-02T07:24:40;95379.03;;;21.15;38.11
6132;BME280;3097;42.692;23.278;2023-05-02T07:27:08;95400.47;;;21.27;39.15
6132;BME280;3097;42.692;23.278;2023-05-02T07:29:33;95398.25;;;21.68;39.28
6132;BME280;3097;42.692;23.278;2023-05-02T07:31:59;95406.91;;;21.97;36.25
6132;BME280;3097;42.692;23.278;2023-05-02T07:34:24;95403.50;;;21.39;36.66
6132;BME280;3097;42.692;23.278;2023-05-02T07:36:50;95400.56;;;21.17;37.55
6132;BME280;3097;42.692;23.278;2023-05-02T07:39:15;95408.56;;;21.31;37.77
6132;BME280;3097;42.692;23.278;2023-05-02T07:41:41;95399.28;;;21.72;37.38
6132;BME280;3097;42.692;23.278;2023-05-02T07:44:06;95407.78;;;22.12;36.85
6132;BME280;3097;42.692;23.278;2023-05-02T07:46:31;95408.81;;;22.16;36.46
6132;BME280;3097;42.692;23.278;2023-05-02T07:48:57;95409.75;;;22.25;36.23
6132;BME280;3097;42.692;23.278;2023-05-02T07:51:22;95386.88;;;22.25;36.20
6132;BME280;3097;42.692;23.278;2023-05-02T07:53:50;95410.19;;;22.51;35.75
6132;BME280;3097;42.692;23.278;2023-05-02T07:56:18;95396.78;;;22.52;36.13
6132;BME280;3097;42.692;23.278;2023-05-02T07:58:43;95404.84;;;22.98;35.19
6132;BME280;3097;42.692;23.278;2023-05-02T08:01:09;95404.34;;;22.35;34.96
6132;BME280;3097;42.692;23.278;2023-05-02T08:03:34;95397.44;;;21.96;36.38
6132;BME280;3097;42.692;23.278;2023-05-02T08:06:00;95402.19;;;21.94;36.56
6132;BME280;3097;42.692;23.278;2023-05-02T08:08:26;95398.13;;;22.31;38.40
6132;BME280;3097;42.692;23.278;2023-05-02T08:10:52;95389.69;;;22.71;35.96
6132;BME280;3097;42.692;23.278;2023-05-02T08:13:17;95398.16;;;22.87;34.99
6132;BME280;3097;42.692;23.278;2023-05-02T08:15:43;95396.34;;;22.64;35.12
6132;BME280;3097;42.692;23.278;2023-05-02T08:18:08;95408.00;;;22.39;34.79
6132;BME280;3097;42.692;23.278;2023-05-02T08:20:34;95398.84;;;22.13;35.68
6132;BME280;3097;42.692;23.278;2023-05-02T08:23:00;95404.41;;;21.82;36.03
6132;BME280;3097;42.692;23.278;2023-05-02T08:25:25;95396.44;;;21.40;37.08
6132;BME280;3097;42.692;23.278;2023-05-02T08:27:51;95404.69;;;21.23;37.43
6132;BME280;3097;42.692;23.278;2023-05-02T08:30:16;95402.94;;;21.08;37.73
6132;BME280;3097;42.692;23.278;2023-05-02T08:32:42;95405.97;;;20.86;38.21
6132;BME280;3097;42.692;23.278;2023-05-02T08:35:08;95400.06;;;20.71;38.33
6132;BME280;3097;42.692;23.278;2023-05-02T08:37:33;95402.19;;;20.64;39.30
6132;BME280;3097;42.692;23.278;2023-05-02T08:39:59;95410.63;;;20.56;38.53
6132;BME280;3097;42.692;23.278;2023-05-02T08:42:25;95411.66;;;20.60;39.24
6132;BME280;3097;42.692;23.278;2023-05-02T08:44:50;95411.06;;;20.73;39.69
6132;BME280;3097;42.692;23.278;2023-05-02T08:47:17;95395.16;;;20.98;42.02
6132;BME280;3097;42.692;23.278;2023-05-02T08:49:43;95399.75;;;21.16;38.46
6132;BME280;3097;42.692;23.278;2023-05-02T08:52:11;95415.53;;;21.06;37.39
6132;BME280;3097;42.692;23.278;2023-05-02T08:54:37;95408.34;;;20.83;38.29
6132;BME280;3097;42.692;23.278;2023-05-02T08:57:03;95400.00;;;20.76;37.74
6132;BME280;3097;42.692;23.278;2023-05-02T08:59:30;95393.81;;;20.62;38.53
6132;BME280;3097;42.692;23.278;2023-05-02T09:01:59;95386.28;;;20.50;38.78
6132;BME280;3097;42.692;23.278;2023-05-02T09:04:30;95394.47;;;20.38;40.53
6132;BME280;3097;42.692;23.278;2023-05-02T09:06:56;95388.78;;;20.21;39.61
6132;BME280;3097;42.692;23.278;2023-05-02T09:09:21;95388.47;;;20.28;39.98
6132;BME280;3097;42.692;23.278;2023-05-02T09:11:48;95389.78;;;20.35;39.59
6132;BME280;3097;42.692;23.278;2023-05-02T09:14:15;95373.06;;;20.16;38.31
6132;BME280;3097;42.692;23.278;2023-05-02T09:16:40;95372.56;;;20.09;38.60
6132;BME280;3097;42.692;23.278;2023-05-02T09:19:06;95384.16;;;19.93;38.99
6132;BME280;3097;42.692;23.278;2023-05-02T09:21:38;95372.44;;;19.75;39.28
6132;BME280;3097;42.692;23.278;2023-05-02T09:24:18;95382.13;;;19.75;39.64
6132;BME280;3097;42.692;23.278;2023-05-02T09:27:04;95392.59;;;19.75;40.06
6132;BME280;3097;42.692;23.278;2023-05-02T09:29:31;95389.16;;;19.84;40.73
6132;BME280;3097;42.692;23.278;2023-05-02T09:32:02;95377.59;;;19.95;39.17
6132;BME280;3097;42.692;23.278;2023-05-02T09:34:28;95386.44;;;20.09;38.71
6132;BME280;3097;42.692;23.278;2023-05-02T09:36:55;95380.47;;;20.04;39.59
6132;BME280;3097;42.692;23.278;2023-05-02T09:39:24;95369.22;;;19.93;38.60
6132;BME280;3097;42.692;23.278;2023-05-02T09:41:49;95365.81;;;19.98;38.32
6132;BME280;3097;42.692;23.278;2023-05-02T09:44:20;95381.97;;;20.15;38.32
6132;BME280;3097;42.692;23.278;2023-05-02T09:46:49;95346.41;;;20.09;38.46
6132;BME280;3097;42.692;23.278;2023-05-02T09:49:15;95369.88;;;20.24;37.20
6132;BME280;3097;42.692;23.278;2023-05-02T09:51:45;95362.06;;;20.19;39.11
6132;BME280;3097;42.692;23.278;2023-05-02T09:54:12;95356.53;;;20.26;38.95
6132;BME280;3097;42.692;23.278;2023-05-02T09:56:55;95367.91;;;20.55;37.58
6132;BME280;3097;42.692;23.278;2023-05-02T09:59:21;95338.13;;;20.46;36.74
6132;BME280;3097;42.692;23.278;2023-05-02T10:01:55;95362.53;;;20.31;37.14
6132;BME280;3097;42.692;23.278;2023-05-02T10:04:21;95334.16;;;19.94;37.62
6132;BME280;3097;42.692;23.278;2023-05-02T10:06:47;95340.75;;;19.82;37.26
6132;BME280;3097;42.692;23.278;2023-05-02T10:09:15;95356.94;;;19.99;37.82
6132;BME280;3097;42.692;23.278;2023-05-02T10:11:41;95350.16;;;19.88;37.65
6132;BME280;3097;42.692;23.278;2023-05-02T10:14:09;95343.38;;;19.82;38.88
6132;BME280;3097;42.692;23.278;2023-05-02T10:16:37;95351.91;;;20.02;37.53
6132;BME280;3097;42.692;23.278;2023-05-02T10:19:10;95325.03;;;19.92;36.86
6132;BME280;3097;42.692;23.278;2023-05-02T10:21:38;95352.47;;;19.99;37.03
6132;BME280;3097;42.692;23.278;2023-05-02T10:24:04;95335.75;;;19.90;37.75
6132;BME280;3097;42.692;23.278;2023-05-02T10:26:30;95340.66;;;20.02;37.61
6132;BME280;3097;42.692;23.278;2023-05-02T10:28:59;95326.53;;;20.03;37.17
6132;BME280;3097;42.692;23.278;2023-05-02T10:31:25;95335.66;;;20.10;37.10
6132;BME280;3097;42.692;23.278;2023-05-02T10:33:51;95326.47;;;20.18;35.95
6132;BME280;3097;42.692;23.278;2023-05-02T10:36:20;95325.50;;;20.04;35.49
6132;BME280;3097;42.692;23.278;2023-05-02T10:38:47;95326.00;;;20.06;36.16
6132;BME280;3097;42.692;23.278;2023-05-02T10:41:26;95326.50;;;20.13;35.97
6132;BME280;3097;42.692;23.278;2023-05-02T10:43:53;95303.19;;;20.12;35.97
6132;BME280;3097;42.692;23.278;2023-05-02T10:46:35;95317.81;;;20.18;35.64
6132;BME280;3097;42.692;23.278;2023-05-02T10:49:09;95314.13;;;20.24;36.71
6132;BME280;3097;42.692;23.278;2023-05-02T10:51:40;95311.56;;;20.14;35.72
6132;BME280;3097;42.692;23.278;2023-05-02T10:59:38;95312.28;;;20.24;36.12
6132;BME280;3097;42.692;23.278;2023-05-02T11:04:59;95289.19;;;20.31;34.97
6132;BME280;3097;42.692;23.278;2023-05-02T11:07:26;95291.75;;;20.46;36.02
6132;BME280;3097;42.692;23.278;2023-05-02T11:09:51;95303.84;;;20.76;35.47
6132;BME280;3097;42.692;23.278;2023-05-02T11:18:10;95306.03;;;20.64;35.25
6132;BME280;3097;42.692;23.278;2023-05-02T11:20:43;95295.72;;;20.78;35.35
6132;BME280;3097;42.692;23.278;2023-05-02T11:25:43;95260.59;;;20.79;35.45
6132;BME280;3097;42.692;23.278;2023-05-02T11:31:00;95283.28;;;21.22;35.19
6132;BME280;3097;42.692;23.278;2023-05-02T11:33:27;95278.59;;;21.14;33.84
6132;BME280;3097;42.692;23.278;2023-05-02T11:35:53;95281.97;;;20.91;34.65
6132;BME280;3097;42.692;23.278;2023-05-02T11:38:21;95283.00;;;20.95;35.25
6132;BME280;3097;42.692;23.278;2023-05-02T11:40:57;95277.25;;;20.93;34.43
6132;BME280;3097;42.692;23.278;2023-05-02T11:43:25;95276.25;;;20.89;34.31
6132;BME280;3097;42.692;23.278;2023-05-02T11:45:51;95256.81;;;20.90;34.86
6132;BME280;3097;42.692;23.278;2023-05-02T11:48:19;95279.53;;;21.00;33.98
6132;BME280;3097;42.692;23.278;2023-05-02T11:50:46;95272.88;;;21.12;34.44
6132;BME280;3097;42.692;23.278;2023-05-02T11:53:14;95267.59;;;21.17;34.39
6132;BME280;3097;42.692;23.278;2023-05-02T11:55:48;95257.75;;;21.04;33.65
6132;BME280;3097;42.692;23.278;2023-05-02T11:58:15;95256.97;;;21.04;34.36
6132;BME280;3097;42.692;23.278;2023-05-02T12:00:43;95253.06;;;21.01;34.04
6132;BME280;3097;42.692;23.278;2023-05-02T12:03:21;95258.84;;;20.98;34.59
6132;BME280;3097;42.692;23.278;2023-05-02T12:05:47;95240.88;;;20.86;34.89
6132;BME280;3097;42.692;23.278;2023-05-02T12:08:21;95239.44;;;20.99;35.28
6132;BME280;3097;42.692;23.278;2023-05-02T12:10:47;95239.34;;;21.09;34.35
6132;BME280;3097;42.692;23.278;2023-05-02T12:13:13;95246.25;;;21.00;34.69
6132;BME280;3097;42.692;23.278;2023-05-02T12:15:39;95230.25;;;20.73;34.56
6132;BME280;3097;42.692;23.278;2023-05-02T12:18:05;95206.34;;;20.51;35.55
6132;BME280;3097;42.692;23.278;2023-05-02T12:20:31;95230.28;;;20.68;35.48
6132;BME280;3097;42.692;23.278;2023-05-02T12:22:56;95189.72;;;20.36;35.15
6132;BME280;3097;42.692;23.278;2023-05-02T12:25:22;95226.66;;;20.64;36.01
6132;BME280;3097;42.692;23.278;2023-05-02T12:28:00;95228.03;;;20.85;35.63
6132;BME280;3097;42.692;23.278;2023-05-02T12:30:29;95213.75;;;20.72;34.91
6132;BME280;3097;42.692;23.278;2023-05-02T12:32:57;95191.09;;;20.58;35.01
6132;BME280;3097;42.692;23.278;2023-05-02T12:35:23;95189.78;;;20.55;35.27
6132;BME280;3097;42.692;23.278;2023-05-02T12:37:48;95190.91;;;20.78;35.44
6132;BME280;3097;42.692;23.278;2023-05-02T12:40:15;95216.81;;;20.79;34.78
6132;BME280;3097;42.692;23.278;2023-05-02T12:42:41;95185.28;;;20.61;34.14
6132;BME280;3097;42.692;23.278;2023-05-02T12:45:17;95168.72;;;20.41;34.10
6132;BME280;3097;42.692;23.278;2023-05-02T12:47:45;95168.25;;;20.34;34.01
6132;BME280;3097;42.692;23.278;2023-05-02T12:50:14;95160.59;;;20.38;34.27
6132;BME280;3097;42.692;23.278;2023-05-02T12:52:48;95188.75;;;20.56;34.07
6132;BME280;3097;42.692;23.278;2023-05-02T12:55:25;95192.47;;;20.79;33.20
6132;BME280;3097;42.692;23.278;2023-05-02T12:58:03;95174.50;;;20.91;33.41
6132;BME280;3097;42.692;23.278;2023-05-02T13:00:34;95178.88;;;21.01;33.32
6132;BME280;3097;42.692;23.278;2023-05-02T13:03:00;95148.00;;;20.69;32.73
6132;BME280;3097;42.692;23.278;2023-05-02T13:05:26;95168.47;;;20.67;32.71
6132;BME280;3097;42.692;23.278;2023-05-02T13:07:54;95176.03;;;20.68;32.77
6132;BME280;3097;42.692;23.278;2023-05-02T13:10:24;95178.63;;;20.73;33.18
6132;BME280;3097;42.692;23.278;2023-05-02T13:12:50;95176.28;;;20.72;32.92
6132;BME280;3097;42.692;23.278;2023-05-02T13:15:17;95194.25;;;20.55;33.57
6132;BME280;3097;42.692;23.278;2023-05-02T13:17:43;95138.94;;;20.27;33.42
6132;BME280;3097;42.692;23.278;2023-05-02T13:20:09;95160.19;;;20.55;33.49
6132;BME280;3097;42.692;23.278;2023-05-02T13:22:34;95184.75;;;20.64;33.11
6132;BME280;3097;42.692;23.278;2023-05-02T13:25:07;95169.44;;;20.47;33.15
6132;BME280;3097;42.692;23.278;2023-05-02T13:27:33;95159.66;;;20.24;33.42
6132;BME280;3097;42.692;23.278;2023-05-02T13:30:01;95173.88;;;20.46;33.59
6132;BME280;3097;42.692;23.278;2023-05-02T13:32:27;95179.22;;;20.31;33.86
6132;BME280;3097;42.692;23.278;2023-05-02T13:34:53;95134.34;;;20.14;33.56
6132;BME280;3097;42.692;23.278;2023-05-02T13:37:19;95162.75;;;20.36;34.14
6132;BME280;3097;42.692;23.278;2023-05-02T13:39:45;95158.16;;;20.52;33.60
6132;BME280;3097;42.692;23.278;2023-05-02T13:42:11;95083.19;;;20.27;33.12
6132;BME280;3097;42.692;23.278;2023-05-02T13:44:36;95158.34;;;20.84;33.03
6132;BME280;3097;42.692;23.278;2023-05-02T13:47:02;95170.03;;;20.68;32.76
6132;BME280;3097;42.692;23.278;2023-05-02T13:49:28;95125.63;;;20.53;32.77